Time;durP1;ratioP1;P1;durP2;ratioP2;P2;SDS_P1;SDS_P2;PMS_P1;PMS_P2;Temp;Humidity;BMP_temperature;BMP_pressure;BME280_temperature;BME280_humidity;BME280_pressure;Samples;Min_cycle;Max_cycle;Signal;HPM_P1;HPM_P2
2022/10/24 00:00:44;;;;;;;8.18;7.00;;;;;;;12.63;100.00;100518.28;5023143;28;20608;-60
2022/10/24 00:03:11;;;;;;;6.78;5.78;;;;;;;12.70;100.00;100512.94;5018277;28;20665;-60
2022/10/24 00:05:41;;;;;;;7.95;6.72;;;;;;;12.68;100.00;100552.47;5043559;28;20243;-61
2022/10/24 00:08:08;;;;;;;8.45;6.80;;;;;;;12.63;100.00;100549.00;5039700;28;20718;-62
2022/10/24 00:10:35;;;;;;;8.63;7.50;;;;;;;12.61;100.00;100546.41;5032534;28;20240;-58
2022/10/24 00:13:01;;;;;;;12.05;7.10;;;;;;;12.62;100.00;100542.00;5022441;28;20240;-59
2022/10/24 00:15:28;;;;;;;7.80;6.78;;;;;;;12.63;100.00;100544.59;5048046;28;20231;-60
2022/10/24 00:17:54;;;;;;;12.95;7.43;;;;;;;12.68;100.00;100530.53;5044730;28;20232;-57
2022/10/24 00:20:21;;;;;;;9.50;7.28;;;;;;;12.64;100.00;100546.38;5042041;28;20239;-58
2022/10/24 00:22:48;;;;;;;9.13;7.25;;;;;;;12.65;100.00;100552.50;5034695;28;20635;-57
2022/10/24 00:25:15;;;;;;;9.23;6.88;;;;;;;12.66;100.00;100554.25;5023247;28;20606;-57
2022/10/24 00:27:41;;;;;;;9.50;7.47;;;;;;;12.65;100.00;100552.50;5037691;28;20228;-58
2022/10/24 00:30:09;;;;;;;7.72;6.85;;;;;;;12.69;100.00;100548.94;5040679;28;20854;-58
2022/10/24 00:32:35;;;;;;;11.60;6.85;;;;;;;12.61;100.00;100541.13;5038540;28;20239;-57
2022/10/24 00:35:02;;;;;;;9.07;7.10;;;;;;;12.65;100.00;100541.97;5030936;28;20229;-57
2022/10/24 00:37:28;;;;;;;8.13;6.03;;;;;;;12.82;100.00;100545.25;5024078;28;20235;-57
2022/10/24 00:39:56;;;;;;;8.32;7.43;;;;;;;12.70;100.00;100534.00;5017163;28;20240;-56
2022/10/24 00:42:22;;;;;;;8.25;7.32;;;;;;;12.67;100.00;100540.22;5028118;28;20231;-57
2022/10/24 00:44:51;;;;;;;9.27;7.43;;;;;;;12.66;100.00;100541.06;5021755;28;20237;-56
2022/10/24 00:47:20;;;;;;;9.73;7.32;;;;;;;12.69;100.00;100546.31;5036914;28;20710;-57
2022/10/24 00:49:50;;;;;;;9.32;7.55;;;;;;;12.72;100.00;100546.28;5035499;28;20236;-56
2022/10/24 00:52:20;;;;;;;8.93;8.00;;;;;;;12.66;100.00;100554.25;5020188;28;20244;-56
2022/10/24 00:54:48;;;;;;;7.93;7.15;;;;;;;12.59;100.00;100566.63;5039446;28;20563;-57
2022/10/24 00:57:21;;;;;;;11.57;8.23;;;;;;;12.57;100.00;100580.72;5031721;28;20748;-56
2022/10/24 00:59:51;;;;;;;12.10;7.80;;;;;;;12.64;100.00;100583.25;5027909;28;20232;-56
2022/10/24 01:02:18;;;;;;;10.00;8.93;;;;;;;12.58;100.00;100583.31;5018208;28;20247;-57
2022/10/24 01:04:47;;;;;;;9.35;8.35;;;;;;;12.60;100.00;100585.91;5039851;28;20232;-55
2022/10/24 01:07:29;;;;;;;13.13;10.32;;;;;;;12.53;100.00;100590.41;5034279;28;20227;-55
2022/10/24 01:10:08;;;;;;;11.02;7.65;;;;;;;12.49;100.00;100582.53;5035800;28;20697;-55
2022/10/24 01:12:47;;;;;;;8.65;7.45;;;;;;;12.56;100.00;100578.94;5020897;28;20228;-55
2022/10/24 01:15:18;;;;;;;8.40;7.13;;;;;;;12.55;100.00;100572.81;5047144;28;20259;-55
2022/10/24 01:17:52;;;;;;;8.63;7.03;;;;;;;12.63;100.00;100570.06;5040977;28;20938;-55
2022/10/24 01:20:51;;;;;;;7.82;7.03;;;;;;;12.62;100.00;100555.19;5039189;28;20297;-55
2022/10/24 01:23:31;;;;;;;8.70;7.90;;;;;;;12.61;100.00;100567.47;5032052;28;20334;-55
2022/10/24 01:26:07;;;;;;;7.55;6.65;;;;;;;12.70;100.00;100569.13;5013358;28;20659;-54
2022/10/24 01:28:42;;;;;;;8.35;7.40;;;;;;;12.65;100.00;100555.16;5031112;28;20262;-55
2022/10/24 01:31:12;;;;;;;7.90;7.00;;;;;;;12.70;100.00;100539.28;5024077;28;20240;-55
2022/10/24 01:33:43;;;;;;;7.55;6.78;;;;;;;12.65;100.00;100523.53;5038281;28;20236;-54
2022/10/24 01:36:14;;;;;;;9.32;7.22;;;;;;;12.66;100.00;100523.50;5041710;28;20674;-54
2022/10/24 01:38:44;;;;;;;10.25;7.70;;;;;;;12.78;100.00;100530.41;5043997;28;20232;-53
2022/10/24 01:41:13;;;;;;;10.48;7.85;;;;;;;12.68;100.00;100534.03;5044625;28;20658;-54
2022/10/24 01:43:42;;;;;;;12.95;7.28;;;;;;;12.68;100.00;100522.63;5032332;28;20248;-54
2022/10/24 01:46:14;;;;;;;7.78;7.13;;;;;;;12.60;100.00;100517.44;5030377;28;20236;-55
2022/10/24 01:48:47;;;;;;;9.68;7.53;;;;;;;12.61;100.00;100516.56;5024214;28;20251;-54
2022/10/24 01:51:15;;;;;;;8.35;6.75;;;;;;;12.73;100.00;100528.69;5039261;28;20294;-54
2022/10/24 01:53:43;;;;;;;11.75;7.32;;;;;;;12.72;100.00;100521.69;5038179;28;20263;-54
2022/10/24 01:56:10;;;;;;;15.27;7.70;;;;;;;12.72;100.00;100505.91;5031927;28;20229;-54
2022/10/24 01:58:37;;;;;;;7.75;6.97;;;;;;;12.62;100.00;100500.72;5031013;28;20333;-54
2022/10/24 02:01:08;;;;;;;7.85;7.05;;;;;;;12.68;100.00;100494.53;5039217;28;20224;-55
2022/10/24 02:03:37;;;;;;;10.63;6.95;;;;;;;12.59;100.00;100478.84;5024259;28;20517;-54
2022/10/24 02:06:09;;;;;;;7.72;6.90;;;;;;;12.59;100.00;100484.97;5042073;28;20236;-53
2022/10/24 02:08:40;;;;;;;11.48;7.03;;;;;;;12.63;100.00;100491.06;5039964;28;20228;-53
2022/10/24 02:11:07;;;;;;;7.22;6.53;;;;;;;12.59;100.00;100494.63;5033858;28;20792;-54
2022/10/24 02:13:38;;;;;;;8.68;6.78;;;;;;;12.56;100.00;100486.78;5028730;28;20240;-54
2022/10/24 02:16:06;;;;;;;7.10;6.35;;;;;;;12.60;100.00;100483.19;5028504;28;20291;-53
2022/10/24 02:18:33;;;;;;;9.93;6.00;;;;;;;12.56;100.00;100474.47;5023308;28;20236;-54
2022/10/24 02:21:07;;;;;;;7.05;6.25;;;;;;;12.54;100.00;100478.03;5016945;28;20236;-54
2022/10/24 02:23:37;;;;;;;6.13;5.53;;;;;;;12.56;100.00;100484.13;5023423;28;20742;-52
2022/10/24 02:26:07;;;;;;;7.20;6.50;;;;;;;12.49;100.00;100485.09;5035841;28;20227;-53
2022/10/24 02:28:37;;;;;;;6.05;5.45;;;;;;;12.47;100.00;100479.00;5037025;28;20285;-53
2022/10/24 02:31:08;;;;;;;7.40;6.70;;;;;;;12.46;100.00;100487.78;5038051;28;20236;-54
2022/10/24 02:33:36;;;;;;;9.48;6.13;;;;;;;12.46;100.00;100483.41;5030799;28;20651;-54
2022/10/24 02:36:05;;;;;;;7.78;6.00;;;;;;;12.48;100.00;100475.47;5024076;28;20737;-54
2022/10/24 02:38:35;;;;;;;8.57;6.25;;;;;;;12.46;100.00;100466.72;5028571;28;20327;-53
2022/10/24 02:41:04;;;;;;;8.02;5.40;;;;;;;12.47;100.00;100461.44;5043502;28;20231;-53
2022/10/24 02:43:32;;;;;;;10.93;6.28;;;;;;;12.52;100.00;100461.38;5044418;28;20256;-53
2022/10/24 02:45:59;;;;;;;10.02;6.10;;;;;;;12.51;100.00;100455.25;5042422;28;20235;-53
2022/10/24 02:48:29;;;;;;;5.80;5.30;;;;;;;12.52;100.00;100461.38;5043709;28;20705;-54
2022/10/24 02:50:56;;;;;;;7.10;6.10;;;;;;;12.51;100.00;100460.50;5033847;28;20240;-54
2022/10/24 02:53:25;;;;;;;7.65;5.60;;;;;;;12.50;100.00;100468.44;5042491;28;20584;-53
2022/10/24 02:55:52;;;;;;;6.45;5.40;;;;;;;12.45;100.00;100473.75;5041084;28;20235;-54
2022/10/24 02:58:18;;;;;;;5.75;5.25;;;;;;;12.48;100.00;100459.69;5022386;28;20229;-53
2022/10/24 03:00:45;;;;;;;7.93;5.50;;;;;;;12.41;100.00;100454.47;5019222;28;20248;-52
2022/10/24 03:03:12;;;;;;;5.93;5.32;;;;;;;12.45;100.00;100457.09;5012734;28;20233;-53
2022/10/24 03:05:39;;;;;;;8.18;5.45;;;;;;;12.51;100.00;100455.25;5028725;28;20228;-53
2022/10/24 03:08:06;;;;;;;6.53;5.38;;;;;;;12.44;100.00;100450.09;5024328;28;20286;-53
2022/10/24 03:10:34;;;;;;;5.55;4.97;;;;;;;12.46;100.00;100449.19;5034849;28;20266;-53
2022/10/24 03:13:02;;;;;;;5.80;5.18;;;;;;;12.44;100.00;100457.97;5033435;28;20278;-54
2022/10/24 03:15:29;;;;;;;9.82;5.22;;;;;;;12.39;100.00;100463.31;5038508;28;20224;-53
2022/10/24 03:17:56;;;;;;;6.50;5.43;;;;;;;12.44;100.00;100465.88;5023098;28;20246;-53
2022/10/24 03:20:23;;;;;;;5.53;5.03;;;;;;;12.43;100.00;100464.16;5039518;28;20244;-53
2022/10/24 03:22:50;;;;;;;5.43;4.68;;;;;;;12.40;100.00;100465.91;5031480;28;20264;-53
2022/10/24 03:25:18;;;;;;;5.90;5.22;;;;;;;12.41;100.00;100459.75;5042028;28;20228;-53
2022/10/24 03:27:46;;;;;;;8.55;5.18;;;;;;;12.37;100.00;100463.31;5031076;28;20235;-52
2022/10/24 03:30:13;;;;;;;4.97;4.43;;;;;;;12.38;100.00;100465.06;5037600;28;20240;-54
2022/10/24 03:32:40;;;;;;;4.72;4.30;;;;;;;12.40;100.00;100465.06;5036002;28;20248;-54
2022/10/24 03:35:08;;;;;;;7.10;5.20;;;;;;;12.34;100.00;100467.75;5019002;28;20810;-54
2022/10/24 03:37:34;;;;;;;4.68;4.22;;;;;;;12.35;100.00;100465.09;5031925;28;20239;-53
2022/10/24 03:40:01;;;;;;;4.43;4.00;;;;;;;12.37;100.00;100468.59;5043030;28;20732;-53
2022/10/24 03:42:28;;;;;;;4.80;4.43;;;;;;;12.39;100.00;100465.94;5042488;28;20236;-54
2022/10/24 03:44:56;;;;;;;6.25;4.50;;;;;;;12.33;100.00;100469.50;5032087;28;20227;-54
2022/10/24 03:47:23;;;;;;;7.82;5.03;;;;;;;12.28;100.00;100457.28;5042055;28;20228;-53
2022/10/24 03:49:50;;;;;;;5.80;5.05;;;;;;;12.22;100.00;100453.00;5036105;28;20248;-52
2022/10/24 03:52:17;;;;;;;6.75;4.97;;;;;;;12.21;100.00;100455.63;5019785;28;20593;-53
2022/10/24 03:54:44;;;;;;;7.03;4.80;;;;;;;12.21;100.00;100461.75;5003539;28;20675;-52
2022/10/24 03:57:12;;;;;;;5.65;5.15;;;;;;;12.26;100.00;100459.09;5008971;28;20221;-53
2022/10/24 03:59:39;;;;;;;5.13;4.63;;;;;;;12.20;100.00;100460.03;5026573;28;20230;-52
2022/10/24 04:02:07;;;;;;;7.03;4.80;;;;;;;12.16;100.00;100468.84;5032529;28;20225;-54
2022/10/24 04:04:34;;;;;;;7.05;4.47;;;;;;;12.12;100.00;100467.16;5032864;28;20258;-54
2022/10/24 04:07:01;;;;;;;5.68;4.60;;;;;;;12.17;100.00;100468.81;5035251;28;20224;-52
2022/10/24 04:09:28;;;;;;;4.68;3.95;;;;;;;12.10;100.00;100464.50;5023776;28;20317;-53
2022/10/24 04:11:55;;;;;;;5.43;3.95;;;;;;;12.11;100.00;100465.38;5040106;28;20236;-54
2022/10/24 04:14:22;;;;;;;4.40;4.00;;;;;;;12.09;100.00;100457.53;5031284;28;20231;-54
2022/10/24 04:16:49;;;;;;;4.57;4.18;;;;;;;12.09;100.00;100459.28;5023924;28;20705;-54
2022/10/24 04:19:18;;;;;;;5.30;4.30;;;;;;;12.10;100.00;100459.25;5017017;28;21170;-53
2022/10/24 04:21:46;;;;;;;5.43;3.92;;;;;;;12.10;100.00;100458.38;5019936;28;20245;-53
2022/10/24 04:24:14;;;;;;;4.28;3.88;;;;;;;12.06;100.00;100446.16;5024106;28;20661;-54
2022/10/24 04:26:43;;;;;;;5.85;4.20;;;;;;;12.09;100.00;100446.13;5018950;28;20283;-53
2022/10/24 04:29:10;;;;;;;5.53;4.30;;;;;;;12.09;100.00;100452.25;5037884;28;20745;-53
2022/10/24 04:31:37;;;;;;;6.93;4.43;;;;;;;12.09;100.00;100447.00;5033034;28;20601;-53
2022/10/24 04:34:05;;;;;;;5.47;4.22;;;;;;;12.08;100.00;100457.56;5020498;28;20393;-53
2022/10/24 04:36:34;;;;;;;3.53;3.22;;;;;;;12.07;100.00;100458.41;5023486;28;20229;-54
2022/10/24 04:39:01;;;;;;;7.57;3.85;;;;;;;12.07;100.00;100469.81;5026143;28;20316;-54
2022/10/24 04:41:28;;;;;;;5.60;4.18;;;;;;;12.05;100.00;100460.22;5034263;28;20228;-52
2022/10/24 04:43:54;;;;;;;4.15;3.83;;;;;;;12.10;100.00;100455.75;5036507;28;20787;-54
2022/10/24 04:46:21;;;;;;;5.15;4.25;;;;;;;12.11;100.00;100454.84;5042592;28;20653;-54
2022/10/24 04:48:48;;;;;;;5.15;4.32;;;;;;;12.08;100.00;100461.06;5031309;28;20695;-54
2022/10/24 04:51:15;;;;;;;6.18;4.68;;;;;;;12.09;100.00;100461.91;5035937;28;20231;-53
2022/10/24 04:53:44;;;;;;;5.72;4.22;;;;;;;12.13;100.00;100461.00;5037143;28;20251;-54
2022/10/24 04:56:11;;;;;;;5.72;4.22;;;;;;;12.10;100.00;100463.66;5041382;28;20239;-54
2022/10/24 04:58:38;;;;;;;7.68;4.38;;;;;;;12.15;100.00;100465.34;5037143;28;20612;-53
2022/10/24 05:01:05;;;;;;;4.80;3.95;;;;;;;12.29;100.00;100470.44;5041038;28;20258;-53
2022/10/24 05:03:32;;;;;;;6.65;4.00;;;;;;;12.26;100.00;100474.88;5027944;28;20599;-54
2022/10/24 05:05:59;;;;;;;3.67;3.38;;;;;;;12.28;100.00;100479.22;5031251;28;20231;-54
2022/10/24 05:08:29;;;;;;;5.20;3.75;;;;;;;12.32;100.00;100485.31;5033677;28;20228;-53
2022/10/24 05:10:58;;;;;;;6.97;4.03;;;;;;;12.26;100.00;100488.03;5035057;28;20252;-55
2022/10/24 05:13:25;;;;;;;4.80;4.30;;;;;;;12.33;100.00;100492.34;5025770;28;20231;-53
2022/10/24 05:15:52;;;;;;;5.95;4.20;;;;;;;12.28;100.00;100483.63;5021497;28;20270;-54
2022/10/24 05:18:18;;;;;;;8.23;4.65;;;;;;;12.25;100.00;100484.53;5020662;28;20240;-53
2022/10/24 05:20:45;;;;;;;4.18;3.78;;;;;;;12.29;100.00;100480.97;5036284;28;20226;-54
2022/10/24 05:23:12;;;;;;;6.07;4.63;;;;;;;12.31;100.00;100473.91;5040338;28;20721;-53
2022/10/24 05:25:39;;;;;;;3.83;3.53;;;;;;;12.28;100.00;100479.22;5028606;28;20241;-54
2022/10/24 05:28:08;;;;;;;5.32;3.70;;;;;;;12.28;100.00;100487.09;5030801;28;20228;-53
2022/10/24 05:30:35;;;;;;;6.60;3.90;;;;;;;12.30;100.00;100477.44;5013498;28;20384;-53
2022/10/24 05:33:02;;;;;;;4.00;3.65;;;;;;;12.25;100.00;100481.91;5021730;28;20612;-52
2022/10/24 05:35:29;;;;;;;5.93;3.75;;;;;;;12.26;100.00;100491.53;5041576;28;20227;-53
2022/10/24 05:37:55;;;;;;;4.60;3.13;;;;;;;12.29;100.00;100480.13;5029466;28;20760;-57
2022/10/24 05:40:22;;;;;;;3.95;3.58;;;;;;;12.32;100.00;100478.31;5025658;28;20287;-54
2022/10/24 05:42:51;;;;;;;10.38;3.78;;;;;;;12.29;100.00;100474.84;5031988;28;20255;-53
2022/10/24 05:45:20;;;;;;;4.97;3.88;;;;;;;12.28;100.00;100478.34;5036021;28;20717;-52
2022/10/24 05:47:47;;;;;;;5.05;3.78;;;;;;;12.27;100.00;100477.47;5030125;28;20233;-53
2022/10/24 05:50:14;;;;;;;7.60;4.53;;;;;;;12.26;100.00;100474.88;5028628;28;20232;-54
2022/10/24 05:52:42;;;;;;;5.82;3.83;;;;;;;12.31;100.00;100473.91;5018241;28;20264;-52
2022/10/24 05:55:10;;;;;;;4.45;3.72;;;;;;;12.27;100.00;100472.22;5038725;28;20715;-53
2022/10/24 05:57:38;;;;;;;4.43;3.85;;;;;;;12.28;100.00;100475.72;5040559;28;20706;-53
2022/10/24 06:00:09;;;;;;;4.50;3.95;;;;;;;12.27;100.00;100468.72;5034060;28;20225;-53
2022/10/24 06:02:37;;;;;;;5.25;3.75;;;;;;;12.28;100.00;100471.31;5041417;28;20236;-52
2022/10/24 06:05:05;;;;;;;3.97;3.35;;;;;;;12.46;100.00;100462.34;5030882;28;20267;-53
2022/10/24 06:07:31;;;;;;;4.97;4.25;;;;;;;12.42;100.00;100457.97;5032921;28;20777;-53
2022/10/24 06:09:58;;;;;;;6.85;4.40;;;;;;;12.46;100.00;100466.72;5030148;28;20258;-53
2022/10/24 06:12:25;;;;;;;6.85;3.65;;;;;;;12.45;100.00;100462.34;5034474;28;20778;-53
2022/10/24 06:14:56;;;;;;;11.20;4.65;;;;;;;12.48;100.00;100451.78;5027860;28;20229;-53
2022/10/24 06:17:22;;;;;;;4.93;4.32;;;;;;;12.47;100.00;100448.28;5040724;28;20722;-53
2022/10/24 06:19:51;;;;;;;4.38;3.97;;;;;;;12.47;100.00;100455.31;5038241;28;20227;-53
2022/10/24 06:22:18;;;;;;;5.85;4.13;;;;;;;12.44;100.00;100457.97;5035277;28;20923;-53
2022/10/24 06:24:46;;;;;;;6.47;4.10;;;;;;;12.45;100.00;100443.91;5034868;28;20232;-52
2022/10/24 06:27:14;;;;;;;4.32;3.78;;;;;;;12.46;100.00;100451.81;5029302;28;20591;-53
2022/10/24 06:29:41;;;;;;;5.30;4.80;;;;;;;12.57;100.00;100463.06;5033441;28;20764;-52
2022/10/24 06:32:08;;;;;;;6.38;5.00;;;;;;;12.53;100.00;100464.00;5033406;28;20240;-54
2022/10/24 06:34:35;;;;;;;9.75;4.43;;;;;;;12.52;100.00;100462.25;5032960;28;20322;-53
2022/10/24 06:37:04;;;;;;;7.45;3.97;;;;;;;12.52;100.00;100456.09;5037170;28;20664;-54
2022/10/24 06:39:31;;;;;;;7.63;5.45;;;;;;;12.54;100.00;100460.47;5023753;28;20283;-53
2022/10/24 06:41:58;;;;;;;7.75;4.72;;;;;;;12.57;100.00;100451.66;5029484;28;20227;-54
2022/10/24 06:44:25;;;;;;;5.35;4.05;;;;;;;12.58;100.00;100461.31;5028169;28;20240;-54
2022/10/24 06:46:52;;;;;;;5.57;4.35;;;;;;;12.71;100.00;100462.00;5024377;28;20571;-53
2022/10/24 06:49:19;;;;;;;4.63;4.22;;;;;;;12.65;100.00;100460.31;5032282;28;20227;-53
2022/10/24 06:51:46;;;;;;;6.72;4.28;;;;;;;12.76;100.00;100470.72;5039472;28;20242;-54
2022/10/24 06:54:15;;;;;;;7.97;5.15;;;;;;;12.74;100.00;100467.22;5033159;28;20305;-54
2022/10/24 06:56:42;;;;;;;8.77;4.72;;;;;;;12.79;100.00;100474.16;5023824;28;20236;-53
2022/10/24 06:59:10;;;;;;;6.35;4.93;;;;;;;12.77;100.00;100477.72;5033357;28;20228;-54
2022/10/24 07:01:36;;;;;;;7.65;4.63;;;;;;;12.80;100.00;100485.56;5028941;28;20255;-52
2022/10/24 07:04:04;;;;;;;4.78;4.18;;;;;;;12.86;100.00;100488.13;5048091;28;20331;-52
2022/10/24 07:06:31;;;;;;;9.20;4.22;;;;;;;12.91;100.00;100491.56;5045846;28;20281;-53
2022/10/24 07:09:00;;;;;;;6.25;4.82;;;;;;;12.89;100.00;100502.13;5042360;28;20255;-53
2022/10/24 07:11:28;;;;;;;6.68;4.93;;;;;;;12.96;100.00;100504.69;5042102;28;20238;-56
2022/10/24 07:13:55;;;;;;;8.27;5.53;;;;;;;12.97;100.00;100517.81;5048015;28;20231;-56
2022/10/24 07:16:22;;;;;;;5.97;4.78;;;;;;;13.00;100.00;100519.56;5047352;28;20309;-53
2022/10/24 07:18:49;;;;;;;9.70;4.72;;;;;;;13.02;100.00;100509.84;5038523;28;20695;-54
2022/10/24 07:21:18;;;;;;;9.27;4.75;;;;;;;13.13;100.00;100500.03;5024037;28;20596;-54
2022/10/24 07:23:45;;;;;;;9.18;4.43;;;;;;;13.12;100.00;100495.63;5033004;28;20666;-53
2022/10/24 07:26:14;;;;;;;7.22;4.32;;;;;;;13.12;100.00;100498.28;5043170;28;20234;-53
2022/10/24 07:28:45;;;;;;;8.40;5.68;;;;;;;13.24;100.00;100495.50;5031804;28;20895;-53
2022/10/24 07:31:13;;;;;;;4.85;4.43;;;;;;;13.33;100.00;100502.38;5037573;28;20231;-53
2022/10/24 07:33:41;;;;;;;6.80;4.95;;;;;;;13.36;100.00;100505.81;5027394;28;20331;-53
2022/10/24 07:36:08;;;;;;;7.57;4.38;;;;;;;13.41;100.00;100510.16;5040205;28;20904;-53
2022/10/24 07:38:36;;;;;;;6.85;4.25;;;;;;;13.48;100.00;100504.78;5031528;28;20237;-53
2022/10/24 07:41:04;;;;;;;5.22;4.30;;;;;;;13.54;100.00;100506.41;5027503;28;20252;-54
2022/10/24 07:43:30;;;;;;;7.50;3.97;;;;;;;13.61;100.00;100506.28;5039707;28;20236;-53
2022/10/24 07:45:59;;;;;;;9.40;4.63;;;;;;;13.64;100.00;100521.19;5016148;28;20264;-53
2022/10/24 07:48:25;;;;;;;7.65;3.97;;;;;;;13.68;100.00;100517.59;5035513;28;20228;-54
2022/10/24 07:50:53;;;;;;;6.60;4.15;;;;;;;13.75;100.00;100518.38;5034378;28;20242;-56
2022/10/24 07:53:19;;;;;;;10.35;7.25;;;;;;;13.92;100.00;100511.03;5021636;28;20710;-53
2022/10/24 07:55:46;;;;;;;6.45;3.97;;;;;;;13.97;100.00;100513.56;5015361;28;20244;-55
2022/10/24 07:58:13;;;;;;;5.90;3.95;;;;;;;13.93;100.00;100511.91;5026817;28;20731;-52
2022/10/24 08:00:40;;;;;;;5.05;3.95;;;;;;;13.98;100.00;100512.69;5029516;28;20375;-52
2022/10/24 08:03:08;;;;;;;7.80;4.07;;;;;;;13.98;100.00;100510.94;5028909;28;20268;-53
2022/10/24 08:05:35;;;;;;;5.82;3.80;;;;;;;14.03;100.00;100510.81;5020190;28;20259;-53
2022/10/24 08:08:02;;;;;;;4.57;4.10;;;;;;;14.07;100.00;100509.88;5029568;28;20232;-53
2022/10/24 08:10:28;;;;;;;10.48;4.55;;;;;;;14.20;100.00;100511.38;5024633;28;20232;-53
2022/10/24 08:12:55;;;;;;;7.53;3.97;;;;;;;14.23;100.00;100515.75;5041539;28;20242;-53
2022/10/24 08:15:24;;;;;;;7.38;4.45;;;;;;;14.28;100.00;100506.81;5014841;28;20700;-53
2022/10/24 08:17:51;;;;;;;6.15;4.43;;;;;;;14.32;100.00;100510.28;5013385;28;20263;-54
2022/10/24 08:20:20;;;;;;;7.20;4.20;;;;;;;14.42;100.00;100508.31;5018167;28;20787;-54
2022/10/24 08:22:47;;;;;;;9.82;4.85;;;;;;;14.55;100.00;100504.53;5030381;28;20453;-55
2022/10/24 08:25:14;;;;;;;9.27;3.97;;;;;;;14.60;100.00;100505.34;5028285;28;20300;-53
2022/10/24 08:27:41;;;;;;;5.75;4.20;;;;;;;14.70;100.00;100506.84;5019984;28;20240;-53
2022/10/24 08:30:09;;;;;;;5.45;4.13;;;;;;;14.82;100.00;100510.16;5025756;28;20229;-53
2022/10/24 08:32:37;;;;;;;5.10;3.38;;;;;;;14.93;100.00;100509.00;5026417;28;20240;-53
2022/10/24 08:35:04;;;;;;;13.10;6.75;;;;;;;15.03;100.00;100504.38;5027084;28;20318;-53
2022/10/24 08:37:36;;;;;;;8.93;4.22;;;;;;;15.10;100.00;100511.28;5028593;28;20227;-52
2022/10/24 08:40:06;;;;;;;7.55;4.10;;;;;;;15.28;100.00;100494.97;5023711;28;20634;-52
2022/10/24 08:42:33;;;;;;;6.10;3.50;;;;;;;15.28;100.00;100505.53;5021277;28;20225;-55
2022/10/24 08:45:00;;;;;;;8.57;2.78;;;;;;;15.35;100.00;100500.97;5010238;28;20226;-54
2022/10/24 08:47:32;;;;;;;7.53;3.42;;;;;;;15.40;100.00;100500.84;5022054;28;20236;-55
2022/10/24 08:50:04;;;;;;;6.90;3.72;;;;;;;15.40;100.00;100503.50;5001558;28;20237;-54
2022/10/24 08:52:34;;;;;;;7.97;4.68;;;;;;;15.42;100.00;100496.41;5022652;28;20233;-52
2022/10/24 08:55:08;;;;;;;7.00;2.78;;;;;;;15.56;100.00;100494.28;5018748;28;20795;-52
2022/10/24 08:57:35;;;;;;;7.13;3.50;;;;;;;15.57;100.00;100490.72;5009675;28;20241;-53
2022/10/24 09:00:07;;;;;;;6.55;3.10;;;;;;;15.73;100.00;100494.75;5004850;28;20240;-53
2022/10/24 09:02:38;;;;;;;7.45;2.95;;;;;;;15.65;100.00;100488.72;4997116;28;20723;-54
2022/10/24 09:05:21;;;;;;;8.52;3.10;;;;;;;15.69;100.00;100485.16;4994028;28;20260;-52
2022/10/24 09:07:52;;;;;;;9.80;2.80;;;;;;;15.80;100.00;100482.22;4999182;28;20715;-53
2022/10/24 09:10:23;;;;;;;12.32;4.13;;;;;;;15.79;100.00;100484.91;5000074;28;20229;-52
2022/10/24 09:12:50;;;;;;;7.07;3.00;;;;;;;15.74;100.00;100488.53;5000017;28;20249;-52
2022/10/24 09:15:23;;;;;;;6.53;3.17;;;;;;;15.86;100.00;100487.31;5000607;28;20229;-52
2022/10/24 09:17:49;;;;;;;11.15;3.55;;;;;;;15.85;100.00;100493.53;4998726;28;20233;-52
2022/10/24 09:20:22;;;;;;;13.32;4.50;;;;;;;15.83;100.00;100502.44;5003313;28;20587;-52
2022/10/24 09:22:51;;;;;;;9.32;3.33;;;;;;;15.84;100.00;100490.94;5010894;28;20232;-52
2022/10/24 09:25:21;;;;;;;5.55;3.28;;;;;;;15.98;100.00;100494.97;5019671;28;20251;-53
2022/10/24 09:27:48;;;;;;;6.30;2.85;;;;;;;16.01;100.00;100480.78;5024143;28;20228;-53
2022/10/24 09:30:18;;;;;;;5.68;2.72;;;;;;;16.05;100.00;100495.66;5017940;28;20240;-54
2022/10/24 09:32:44;;;;;;;6.65;3.28;;;;;;;16.05;100.00;100498.31;5013936;28;20251;-53
2022/10/24 09:35:16;;;;;;;5.70;3.65;;;;;;;16.10;100.00;100493.75;5026534;28;20240;-52
2022/10/24 09:37:45;;;;;;;4.72;3.10;;;;;;;16.16;100.00;100490.94;5025838;28;20233;-53
2022/10/24 09:40:17;;;;;;;7.78;3.33;;;;;;;16.13;100.00;100500.75;5022753;28;20244;-52
2022/10/24 09:42:49;;;;;;;7.53;2.85;;;;;;;16.17;100.00;100491.78;5015617;28;20718;-52
2022/10/24 09:45:40;;;;;;;5.70;2.45;;;;;;;16.19;100.00;100490.00;5020559;28;20255;-52
2022/10/24 09:48:18;;;;;;;10.70;3.33;;;;;;;16.35;100.00;100485.09;5022431;28;20252;-53
2022/10/24 09:50:45;;;;;;;8.90;2.97;;;;;;;16.36;100.00;100486.88;5004769;28;20312;-53
2022/10/24 09:53:23;;;;;;;5.82;3.28;;;;;;;16.33;100.00;100495.75;5005452;28;20233;-52
2022/10/24 09:55:53;;;;;;;6.68;2.90;;;;;;;16.35;100.00;100498.34;4996406;28;20240;-54
2022/10/24 09:58:28;;;;;;;9.88;3.88;;;;;;;16.39;100.00;100502.66;5009513;28;20233;-54
2022/10/24 10:00:59;;;;;;;6.15;3.05;;;;;;;16.38;100.00;100495.63;5019096;28;20228;-53
2022/10/24 10:03:27;;;;;;;6.55;3.00;;;;;;;16.42;100.00;100497.25;5010564;28;20242;-53
2022/10/24 10:05:55;;;;;;;10.25;3.28;;;;;;;16.52;100.00;100503.16;5025910;28;20768;-52
2022/10/24 10:08:23;;;;;;;7.53;3.70;;;;;;;16.58;100.00;100492.41;5003869;28;20229;-53
2022/10/24 10:11:00;;;;;;;11.00;3.55;;;;;;;16.59;100.00;100500.28;5017975;28;20224;-53
2022/10/24 10:13:28;;;;;;;3.85;2.80;;;;;;;16.58;100.00;100498.56;5020943;28;20921;-52
2022/10/24 10:15:55;;;;;;;6.75;3.00;;;;;;;16.64;100.00;100492.22;5017218;28;20260;-54
2022/10/24 10:18:28;;;;;;;9.70;3.03;;;;;;;16.70;100.00;100487.56;5025914;28;20228;-53
2022/10/24 10:21:07;;;;;;;6.88;2.92;;;;;;;16.73;100.00;100488.41;5020472;28;20225;-52
2022/10/24 10:23:36;;;;;;;7.28;2.67;;;;;;;16.74;100.00;100482.19;5022566;28;20236;-52
2022/10/24 10:26:13;;;;;;;6.10;3.28;;;;;;;16.80;100.00;100492.66;5004958;28;20242;-51
2022/10/24 10:28:43;;;;;;;5.43;2.72;;;;;;;16.82;100.00;100490.84;5004232;28;20267;-52
2022/10/24 10:31:10;;;;;;;10.77;3.22;;;;;;;16.89;100.00;100492.38;5022212;28;20239;-52
2022/10/24 10:33:42;;;;;;;5.18;2.28;;;;;;;16.89;100.00;100489.72;5025384;28;20248;-52
2022/10/24 10:36:13;;;;;;;9.23;3.45;;;;;;;16.85;100.00;100490.75;5024134;28;20240;-53
2022/10/24 10:38:49;;;;;;;9.98;3.17;;;;;;;16.89;100.00;100492.38;5018254;28;20745;-54
2022/10/24 10:41:26;;;;;;;6.60;2.22;;;;;;;16.94;100.00;100487.78;5022152;28;20232;-53
2022/10/24 10:44:03;;;;;;;6.95;2.20;;;;;;;16.96;100.00;100493.94;5016845;28;20244;-53
2022/10/24 10:46:33;;;;;;;9.80;2.83;;;;;;;17.15;100.00;100487.09;5004732;28;20244;-55
2022/10/24 10:49:04;;;;;;;6.32;2.60;;;;;;;17.00;100.00;100484.94;5009509;28;20232;-52
2022/10/24 10:51:37;;;;;;;6.60;2.85;;;;;;;16.96;100.00;100493.94;5029523;28;20319;-53
2022/10/24 10:54:10;;;;;;;6.13;2.50;;;;;;;16.98;100.00;100493.84;4998618;28;20241;-54
2022/10/24 10:56:44;;;;;;;4.82;2.67;;;;;;;16.99;100.00;100492.94;4997079;28;20236;-52
2022/10/24 10:59:28;;;;;;;7.88;2.70;;;;;;;17.06;100.00;100487.41;5009571;28;20236;-51
2022/10/24 11:01:59;;;;;;;10.48;3.15;;;;;;;17.08;100.00;100479.41;5021612;28;20229;-54
2022/10/24 11:04:32;;;;;;;5.30;2.75;;;;;;;17.15;100.00;100487.09;5011912;28;20260;-54
2022/10/24 11:07:04;;;;;;;4.93;2.30;;;;;;;17.05;100.00;100485.66;5002369;28;20238;-53
2022/10/24 11:09:33;;;;;;;5.20;2.88;;;;;;;17.10;100.00;100489.06;4996194;28;20229;-51
2022/10/24 11:12:09;;;;;;;9.15;2.67;;;;;;;17.11;100.00;100472.22;4997022;28;20723;-52
2022/10/24 11:14:37;;;;;;;4.90;2.72;;;;;;;17.21;100.00;100470.13;5006050;28;20251;-53
2022/10/24 11:17:11;;;;;;;3.55;2.20;;;;;;;17.28;100.00;100468.16;4999590;28;20238;-52
2022/10/24 11:19:44;;;;;;;8.80;2.92;;;;;;;17.17;100.00;100465.84;4992454;28;20265;-53
2022/10/24 11:22:17;;;;;;;6.90;2.83;;;;;;;17.20;100.00;100470.16;5019503;28;20241;-52
2022/10/24 11:24:47;;;;;;;6.32;2.60;;;;;;;17.18;100.00;100473.75;5019857;28;20629;-53